sensor_id;sensor_type;location;lat;lon;timestamp;pressure;altitude;pressure_sealevel;temperature;humidity
9249;BME280;4660;41.768;26.198;2023-03-14T00:01:16;101437.50;;;2.63;93.42
9249;BME280;4660;41.768;26.198;2023-03-14T00:03:42;101440.41;;;2.94;94.00
9249;BME280;4660;41.768;26.198;2023-03-14T00:06:09;101436.84;;;3.13;100.00
9249;BME280;4660;41.768;26.198;2023-03-14T00:08:35;101430.84;;;3.26;100.00
9249;BME280;4660;41.768;26.198;2023-03-14T00:11:10;101429.66;;;3.15;100.00
9249;BME280;4660;41.768;26.198;2023-03-14T00:13:36;101429.88;;;3.10;100.00
9249;BME280;4660;41.768;26.198;2023-03-14T00:16:07;101430.44;;;3.17;100.00
9249;BME280;4660;41.768;26.198;2023-03-14T00:18:33;101434.66;;;3.21;100.00
9249;BME280;4660;41.768;26.198;2023-03-14T00:21:00;101384.59;;;2.94;100.00
9249;BME280;4660;41.768;26.198;2023-03-14T00:23:27;101418.53;;;3.07;99.17
9249;BME280;4660;41.768;26.198;2023-03-14T00:25:57;101414.06;;;2.71;93.12
9249;BME280;4660;41.768;26.198;2023-03-14T00:28:23;101412.03;;;2.40;93.30
9249;BME280;4660;41.768;26.198;2023-03-14T00:30:48;101409.22;;;2.62;92.22
9249;BME280;4660;41.768;26.198;2023-03-14T00:33:14;101399.97;;;2.33;91.78
9249;BME280;4660;41.768;26.198;2023-03-14T00:35:39;101402.63;;;2.33;92.32
9249;BME280;4660;41.768;26.198;2023-03-14T00:38:04;101396.59;;;2.48;90.58
9249;BME280;4660;41.768;26.198;2023-03-14T00:40:30;101395.88;;;2.44;90.05
9249;BME280;4660;41.768;26.198;2023-03-14T00:42:55;101382.00;;;2.57;88.49
9249;BME280;4660;41.768;26.198;2023-03-14T00:45:21;101381.31;;;2.34;91.01
9249;BME280;4660;41.768;26.198;2023-03-14T00:47:47;101361.00;;;1.96;90.50
9249;BME280;4660;41.768;26.198;2023-03-14T00:50:12;101369.69;;;1.80;90.99
9249;BME280;4660;41.768;26.198;2023-03-14T00:52:38;101365.69;;;1.70;89.43
9249;BME280;4660;41.768;26.198;2023-03-14T00:55:04;101348.09;;;1.49;84.89
9249;BME280;4660;41.768;26.198;2023-03-14T00:57:29;101342.78;;;1.49;84.31
9249;BME280;4660;41.768;26.198;2023-03-14T00:59:55;101358.00;;;1.64;83.14
9249;BME280;4660;41.768;26.198;2023-03-14T01:02:20;101345.91;;;1.58;83.29
9249;BME280;4660;41.768;26.198;2023-03-14T01:04:48;101351.81;;;1.45;84.13
9249;BME280;4660;41.768;26.198;2023-03-14T01:07:14;101357.53;;;1.75;84.50
9249;BME280;4660;41.768;26.198;2023-03-14T01:09:39;101345.16;;;1.94;83.02
9249;BME280;4660;41.768;26.198;2023-03-14T01:12:05;101346.66;;;2.00;89.19
9249;BME280;4660;41.768;26.198;2023-03-14T01:14:31;101364.88;;;1.88;94.40
9249;BME280;4660;41.768;26.198;2023-03-14T01:16:56;101363.19;;;1.67;100.00
9249;BME280;4660;41.768;26.198;2023-03-14T01:19:28;101361.59;;;1.43;100.00
9249;BME280;4660;41.768;26.198;2023-03-14T01:21:53;101346.25;;;1.30;100.00
9249;BME280;4660;41.768;26.198;2023-03-14T01:24:19;101351.16;;;1.40;100.00
9249;BME280;4660;41.768;26.198;2023-03-14T01:26:46;101354.81;;;1.76;100.00
9249;BME280;4660;41.768;26.198;2023-03-14T01:29:11;101347.97;;;1.31;100.00
9249;BME280;4660;41.768;26.198;2023-03-14T01:31:37;101351.75;;;1.26;100.00
9249;BME280;4660;41.768;26.198;2023-03-14T01:34:02;101334.72;;;1.31;100.00
9249;BME280;4660;41.768;26.198;2023-03-14T01:36:28;101343.78;;;1.26;100.00
9249;BME280;4660;41.768;26.198;2023-03-14T01:38:54;101356.38;;;1.21;100.00
9249;BME280;4660;41.768;26.198;2023-03-14T01:41:22;101337.38;;;1.31;100.00
9249;BME280;4660;41.768;26.198;2023-03-14T01:43:48;101348.91;;;1.51;100.00
9249;BME280;4660;41.768;26.198;2023-03-14T01:49:21;101357.38;;;1.59;100.00
9249;BME280;4660;41.768;26.198;2023-03-14T01:54:39;101354.66;;;1.20;100.00
9249;BME280;4660;41.768;26.198;2023-03-14T01:57:19;101356.19;;;1.05;100.00
9249;BME280;4660;41.768;26.198;2023-03-14T01:59:52;101344.66;;;1.06;100.00
9249;BME280;4660;41.768;26.198;2023-03-14T02:02:18;101344.53;;;1.09;100.00
9249;BME280;4660;41.768;26.198;2023-03-14T02:04:44;101339.06;;;0.92;100.00
9249;BME280;4660;41.768;26.198;2023-03-14T02:09:39;101341.69;;;0.71;100.00
9249;BME280;4660;41.768;26.198;2023-03-14T02:12:06;101324.06;;;0.70;100.00
9249;BME280;4660;41.768;26.198;2023-03-14T02:14:34;101343.25;;;0.97;100.00
9249;BME280;4660;41.768;26.198;2023-03-14T02:17:01;101334.56;;;1.14;100.00
9249;BME280;4660;41.768;26.198;2023-03-14T02:22:08;101342.75;;;1.09;100.00
9249;BME280;4660;41.768;26.198;2023-03-14T02:27:06;101337.50;;;0.88;100.00
9249;BME280;4660;41.768;26.198;2023-03-14T02:29:36;101348.47;;;0.99;100.00
9249;BME280;4660;41.768;26.198;2023-03-14T02:32:02;101341.03;;;1.08;100.00
9249;BME280;4660;41.768;26.198;2023-03-14T02:34:29;101340.94;;;0.90;100.00
9249;BME280;4660;41.768;26.198;2023-03-14T02:36:56;101336.63;;;0.87;100.00
9249;BME280;4660;41.768;26.198;2023-03-14T02:39:27;101326.91;;;0.88;100.00
9249;BME280;4660;41.768;26.198;2023-03-14T02:41:56;101324.41;;;0.63;100.00
9249;BME280;4660;41.768;26.198;2023-03-14T02:44:22;101327.53;;;0.72;100.00
9249;BME280;4660;41.768;26.198;2023-03-14T02:46:47;101327.22;;;0.80;100.00
9249;BME280;4660;41.768;26.198;2023-03-14T02:49:14;101322.75;;;0.60;100.00
9249;BME280;4660;41.768;26.198;2023-03-14T02:51:40;101331.84;;;0.75;100.00
9249;BME280;4660;41.768;26.198;2023-03-14T02:54:07;101327.44;;;0.96;100.00
9249;BME280;4660;41.768;26.198;2023-03-14T02:56:32;101323.72;;;0.79;100.00
9249;BME280;4660;41.768;26.198;2023-03-14T02:58:58;101322.59;;;0.63;100.00
9249;BME280;4660;41.768;26.198;2023-03-14T03:01:24;101328.44;;;0.51;100.00
9249;BME280;4660;41.768;26.198;2023-03-14T03:03:49;101322.13;;;0.53;100.00
9249;BME280;4660;41.768;26.198;2023-03-14T03:06:15;101330.38;;;0.46;100.00
9249;BME280;4660;41.768;26.198;2023-03-14T03:08:41;101321.88;;;0.16;100.00
9249;BME280;4660;41.768;26.198;2023-03-14T03:11:07;101324.94;;;0.05;100.00
9249;BME280;4660;41.768;26.198;2023-03-14T03:13:33;101321.63;;;0.00;100.00
9249;BME280;4660;41.768;26.198;2023-03-14T03:15:58;101317.19;;;0.01;100.00
9249;BME280;4660;41.768;26.198;2023-03-14T03:18:24;101312.44;;;-0.13;100.00
9249;BME280;4660;41.768;26.198;2023-03-14T03:20:49;101318.75;;;-0.17;100.00
9249;BME280;4660;41.768;26.198;2023-03-14T03:23:15;101313.69;;;-0.23;100.00
9249;BME280;4660;41.768;26.198;2023-03-14T03:25:41;101294.84;;;-0.38;100.00
9249;BME280;4660;41.768;26.198;2023-03-14T03:28:06;101308.97;;;0.08;100.00
9249;BME280;4660;41.768;26.198;2023-03-14T03:30:37;101306.13;;;0.35;100.00
9249;BME280;4660;41.768;26.198;2023-03-14T03:33:02;101299.00;;;0.59;100.00
9249;BME280;4660;41.768;26.198;2023-03-14T03:35:28;101309.22;;;0.46;100.00
9249;BME280;4660;41.768;26.198;2023-03-14T03:37:53;101313.63;;;0.67;100.00
9249;BME280;4660;41.768;26.198;2023-03-14T03:40:19;101317.13;;;0.68;100.00
9249;BME280;4660;41.768;26.198;2023-03-14T03:42:44;101328.94;;;0.81;100.00
9249;BME280;4660;41.768;26.198;2023-03-14T03:45:10;101322.09;;;0.75;100.00
9249;BME280;4660;41.768;26.198;2023-03-14T03:47:35;101322.59;;;0.63;100.00
9249;BME280;4660;41.768;26.198;2023-03-14T03:50:01;101326.03;;;0.87;100.00
9249;BME280;4660;41.768;26.198;2023-03-14T03:52:27;101303.78;;;1.12;98.74
9249;BME280;4660;41.768;26.198;2023-03-14T03:54:53;101313.72;;;1.27;96.90
9249;BME280;4660;41.768;26.198;2023-03-14T03:57:19;101312.41;;;1.17;100.00
9249;BME280;4660;41.768;26.198;2023-03-14T03:59:45;101309.41;;;1.24;100.00
9249;BME280;4660;41.768;26.198;2023-03-14T04:02:10;101322.25;;;1.33;100.00
9249;BME280;4660;41.768;26.198;2023-03-14T04:04:36;101322.66;;;1.24;100.00
9249;BME280;4660;41.768;26.198;2023-03-14T04:07:02;101334.44;;;0.97;100.00
9249;BME280;4660;41.768;26.198;2023-03-14T04:09:29;101326.22;;;0.82;100.00
9249;BME280;4660;41.768;26.198;2023-03-14T04:11:54;101316.41;;;0.85;100.00
9249;BME280;4660;41.768;26.198;2023-03-14T04:14:20;101319.47;;;0.96;100.00
9249;BME280;4660;41.768;26.198;2023-03-14T04:16:45;101322.91;;;0.98;100.00
9249;BME280;4660;41.768;26.198;2023-03-14T04:19:11;101316.16;;;0.91;100.00
9249;BME280;4660;41.768;26.198;2023-03-14T04:21:37;101326.16;;;0.84;100.00
9249;BME280;4660;41.768;26.198;2023-03-14T04:24:05;101301.84;;;0.74;100.00
9249;BME280;4660;41.768;26.198;2023-03-14T04:26:31;101294.03;;;0.71;100.00
9249;BME280;4660;41.768;26.198;2023-03-14T04:28:57;101320.75;;;0.87;100.00
9249;BME280;4660;41.768;26.198;2023-03-14T04:31:23;101322.25;;;0.93;100.00
9249;BME280;4660;41.768;26.198;2023-03-14T04:33:48;101323.25;;;0.90;100.00
9249;BME280;4660;41.768;26.198;2023-03-14T04:36:14;101311.38;;;0.78;100.00
9249;BME280;4660;41.768;26.198;2023-03-14T04:38:40;101322.59;;;0.63;100.00
9249;BME280;4660;41.768;26.198;2023-03-14T04:41:06;101322.75;;;0.60;100.00
9249;BME280;4660;41.768;26.198;2023-03-14T04:43:32;101332.66;;;0.55;100.00
9249;BME280;4660;41.768;26.198;2023-03-14T04:45:58;101326.81;;;0.47;100.00
9249;BME280;4660;41.768;26.198;2023-03-14T04:48:25;101330.91;;;0.10;100.00
9249;BME280;4660;41.768;26.198;2023-03-14T04:50:51;101332.59;;;0.35;100.00
9249;BME280;4660;41.768;26.198;2023-03-14T04:53:17;101333.03;;;0.24;100.00
9249;BME280;4660;41.768;26.198;2023-03-14T04:55:48;101346.72;;;0.12;100.00
9249;BME280;4660;41.768;26.198;2023-03-14T04:58:14;101347.38;;;-0.05;100.00
9249;BME280;4660;41.768;26.198;2023-03-14T05:00:39;101351.41;;;-0.18;100.00
9249;BME280;4660;41.768;26.198;2023-03-14T05:03:05;101306.19;;;-0.59;100.00
9249;BME280;4660;41.768;26.198;2023-03-14T05:05:31;101203.91;;;-1.27;100.00
9249;BME280;4660;41.768;26.198;2023-03-14T05:07:56;101208.38;;;-1.29;100.00
9249;BME280;4660;41.768;26.198;2023-03-14T05:10:22;101253.97;;;-0.99;100.00
9249;BME280;4660;41.768;26.198;2023-03-14T05:13:04;101347.91;;;-0.19;100.00
9249;BME280;4660;41.768;26.198;2023-03-14T05:15:30;101205.56;;;-1.00;100.00
9249;BME280;4660;41.768;26.198;2023-03-14T05:20:51;101243.78;;;-0.62;100.00
9249;BME280;4660;41.768;26.198;2023-03-14T05:23:17;101195.88;;;-0.99;100.00
9249;BME280;4660;41.768;26.198;2023-03-14T05:25:43;101259.47;;;-0.57;100.00
9249;BME280;4660;41.768;26.198;2023-03-14T05:28:09;101239.13;;;-0.55;100.00
9249;BME280;4660;41.768;26.198;2023-03-14T05:30:35;101277.16;;;-0.36;100.00
9249;BME280;4660;41.768;26.198;2023-03-14T05:33:01;101268.53;;;-0.41;100.00
9249;BME280;4660;41.768;26.198;2023-03-14T05:35:27;101267.59;;;-0.16;100.00
9249;BME280;4660;41.768;26.198;2023-03-14T05:37:52;101300.47;;;0.00;100.00
9249;BME280;4660;41.768;26.198;2023-03-14T05:40:19;101330.31;;;0.25;100.00
9249;BME280;4660;41.768;26.198;2023-03-14T05:42:45;101321.13;;;0.12;100.00
9249;BME280;4660;41.768;26.198;2023-03-14T05:45:11;101326.88;;;0.23;100.00
9249;BME280;4660;41.768;26.198;2023-03-14T05:47:36;101267.38;;;0.12;100.00
9249;BME280;4660;41.768;26.198;2023-03-14T05:50:02;101234.75;;;0.33;100.00
9249;BME280;4660;41.768;26.198;2023-03-14T05:55:30;101326.91;;;0.88;100.00
9249;BME280;4660;41.768;26.198;2023-03-14T05:57:56;101271.66;;;0.58;100.00
9249;BME280;4660;41.768;26.198;2023-03-14T06:00:21;101323.59;;;1.23;100.00
9249;BME280;4660;41.768;26.198;2023-03-14T06:02:47;101319.16;;;1.44;100.00
9249;BME280;4660;41.768;26.198;2023-03-14T06:05:13;101255.22;;;1.11;100.00
9249;BME280;4660;41.768;26.198;2023-03-14T06:07:39;101327.84;;;1.67;100.00
9249;BME280;4660;41.768;26.198;2023-03-14T06:10:05;101198.03;;;1.26;100.00
9249;BME280;4660;41.768;26.198;2023-03-14T06:12:32;101319.34;;;1.79;100.00
9249;BME280;4660;41.768;26.198;2023-03-14T06:14:57;101322.44;;;1.88;100.00
9249;BME280;4660;41.768;26.198;2023-03-14T06:17:23;101319.47;;;2.32;100.00
9249;BME280;4660;41.768;26.198;2023-03-14T06:19:48;101312.03;;;2.58;100.00
9249;BME280;4660;41.768;26.198;2023-03-14T06:22:14;101321.59;;;2.79;100.00
9249;BME280;4660;41.768;26.198;2023-03-14T06:24:39;101297.91;;;2.74;100.00
9249;BME280;4660;41.768;26.198;2023-03-14T06:27:05;101299.84;;;3.06;100.00
9249;BME280;4660;41.768;26.198;2023-03-14T06:29:30;101314.09;;;3.22;100.00
9249;BME280;4660;41.768;26.198;2023-03-14T06:31:56;101306.75;;;3.43;100.00
9249;BME280;4660;41.768;26.198;2023-03-14T06:34:22;101300.06;;;3.69;100.00
9249;BME280;4660;41.768;26.198;2023-03-14T06:36:47;101308.59;;;3.91;100.00
9249;BME280;4660;41.768;26.198;2023-03-14T06:39:13;101313.16;;;4.21;99.18
9249;BME280;4660;41.768;26.198;2023-03-14T06:41:38;101298.38;;;4.31;96.95
9249;BME280;4660;41.768;26.198;2023-03-14T06:44:04;101307.41;;;4.28;96.59
9249;BME280;4660;41.768;26.198;2023-03-14T06:46:30;101311.44;;;4.35;97.03
9249;BME280;4660;41.768;26.198;2023-03-14T06:49:01;101308.06;;;4.48;96.18
9249;BME280;4660;41.768;26.198;2023-03-14T06:54:04;101270.47;;;4.68;93.99
9249;BME280;4660;41.768;26.198;2023-03-14T06:56:34;101216.38;;;4.52;91.81
9249;BME280;4660;41.768;26.198;2023-03-14T06:59:02;101176.22;;;4.25;90.01
9249;BME280;4660;41.768;26.198;2023-03-14T07:01:31;101241.91;;;4.70;90.37
9249;BME280;4660;41.768;26.198;2023-03-14T07:04:02;101275.53;;;5.03;90.77
9249;BME280;4660;41.768;26.198;2023-03-14T07:06:28;101290.50;;;5.19;90.49
9249;BME280;4660;41.768;26.198;2023-03-14T07:08:56;101297.94;;;5.29;90.82
9249;BME280;4660;41.768;26.198;2023-03-14T07:11:23;101292.97;;;5.08;90.42
9249;BME280;4660;41.768;26.198;2023-03-14T07:13:49;101303.09;;;5.17;90.87
9249;BME280;4660;41.768;26.198;2023-03-14T07:16:14;101289.03;;;5.44;90.08
9249;BME280;4660;41.768;26.198;2023-03-14T07:18:40;101285.94;;;5.64;89.81
9249;BME280;4660;41.768;26.198;2023-03-14T07:21:06;101278.16;;;5.61;88.08
9249;BME280;4660;41.768;26.198;2023-03-14T07:23:33;101289.56;;;5.77;87.76
9249;BME280;4660;41.768;26.198;2023-03-14T07:25:59;101291.75;;;5.85;88.25
9249;BME280;4660;41.768;26.198;2023-03-14T07:36:40;101201.84;;;5.86;83.01
9249;BME280;4660;41.768;26.198;2023-03-14T07:39:06;101239.19;;;6.14;81.36
9249;BME280;4660;41.768;26.198;2023-03-14T07:45:19;101163.22;;;5.91;81.60
9249;BME280;4660;41.768;26.198;2023-03-14T07:48:17;101194.66;;;6.27;82.20
9249;BME280;4660;41.768;26.198;2023-03-14T07:53:20;101159.78;;;6.56;81.42
9249;BME280;4660;41.768;26.198;2023-03-14T07:55:47;101184.53;;;6.72;81.87
9249;BME280;4660;41.768;26.198;2023-03-14T07:58:14;101251.63;;;7.20;83.92
9249;BME280;4660;41.768;26.198;2023-03-14T08:03:18;101174.47;;;7.14;85.07
9249;BME280;4660;41.768;26.198;2023-03-14T08:05:48;101253.59;;;7.93;83.22
9249;BME280;4660;41.768;26.198;2023-03-14T08:08:22;101159.25;;;7.40;83.03
9249;BME280;4660;41.768;26.198;2023-03-14T08:10:49;101165.97;;;7.58;83.82
9249;BME280;4660;41.768;26.198;2023-03-14T08:20:22;101232.56;;;8.95;74.14
9249;BME280;4660;41.768;26.198;2023-03-14T08:23:15;101125.41;;;8.35;73.54
9249;BME280;4660;41.768;26.198;2023-03-14T08:28:17;101127.34;;;8.57;66.26
9249;BME280;4660;41.768;26.198;2023-03-14T08:37:08;101212.94;;;9.28;66.19
9249;BME280;4660;41.768;26.198;2023-03-14T08:39:37;101119.88;;;8.49;60.00
9249;BME280;4660;41.768;26.198;2023-03-14T08:47:13;101146.22;;;9.01;61.84
9249;BME280;4660;41.768;26.198;2023-03-14T08:49:39;101166.72;;;9.36;61.00
9249;BME280;4660;41.768;26.198;2023-03-14T08:52:05;101179.38;;;9.79;61.16
9249;BME280;4660;41.768;26.198;2023-03-14T08:54:31;101190.66;;;10.16;58.14
9249;BME280;4660;41.768;26.198;2023-03-14T08:56:57;101190.66;;;10.16;56.00
9249;BME280;4660;41.768;26.198;2023-03-14T08:59:23;101181.22;;;10.22;53.93
9249;BME280;4660;41.768;26.198;2023-03-14T09:01:49;101169.56;;;10.00;54.73
9249;BME280;4660;41.768;26.198;2023-03-14T09:04:14;101154.56;;;10.18;53.89
9249;BME280;4660;41.768;26.198;2023-03-14T09:06:40;101173.66;;;10.47;53.47
9249;BME280;4660;41.768;26.198;2023-03-14T09:09:06;101168.69;;;10.43;54.10
9249;BME280;4660;41.768;26.198;2023-03-14T09:11:32;101163.09;;;10.35;54.42
9249;BME280;4660;41.768;26.198;2023-03-14T09:13:58;101143.59;;;10.42;53.13
9249;BME280;4660;41.768;26.198;2023-03-14T09:16:23;101150.81;;;10.42;53.40
9249;BME280;4660;41.768;26.198;2023-03-14T09:18:49;101144.59;;;10.62;53.41
9249;BME280;4660;41.768;26.198;2023-03-14T09:21:15;101143.56;;;10.95;52.88
9249;BME280;4660;41.768;26.198;2023-03-14T09:23:41;101147.34;;;10.93;51.02
9249;BME280;4660;41.768;26.198;2023-03-14T09:26:06;101146.97;;;10.56;52.13
9249;BME280;4660;41.768;26.198;2023-03-14T09:28:32;101116.06;;;10.50;52.57
9249;BME280;4660;41.768;26.198;2023-03-14T09:30:58;101138.31;;;10.52;51.42
9249;BME280;4660;41.768;26.198;2023-03-14T09:33:23;101132.16;;;10.61;51.65
9249;BME280;4660;41.768;26.198;2023-03-14T09:35:49;101130.44;;;10.60;52.15
9249;BME280;4660;41.768;26.198;2023-03-14T09:38:15;101105.56;;;10.68;51.67
9249;BME280;4660;41.768;26.198;2023-03-14T09:40:41;101094.94;;;10.66;50.95
9249;BME280;4660;41.768;26.198;2023-03-14T09:43:14;101121.22;;;11.14;50.63
9249;BME280;4660;41.768;26.198;2023-03-14T09:45:41;101088.91;;;11.14;49.68
9249;BME280;4660;41.768;26.198;2023-03-14T09:48:22;101103.66;;;11.10;50.70
9249;BME280;4660;41.768;26.198;2023-03-14T09:50:51;101101.91;;;11.40;50.81
9249;BME280;4660;41.768;26.198;2023-03-14T09:53:27;101100.28;;;11.58;50.50
9249;BME280;4660;41.768;26.198;2023-03-14T09:55:54;101102.84;;;11.69;48.12
9249;BME280;4660;41.768;26.198;2023-03-14T09:58:24;101094.19;;;11.66;48.39
9249;BME280;4660;41.768;26.198;2023-03-14T10:00:52;101072.28;;;11.40;48.12
9249;BME280;4660;41.768;26.198;2023-03-14T10:03:29;101085.81;;;11.78;47.81
9249;BME280;4660;41.768;26.198;2023-03-14T10:05:56;101082.91;;;11.91;48.10
9249;BME280;4660;41.768;26.198;2023-03-14T10:08:22;101062.19;;;11.92;47.71
9249;BME280;4660;41.768;26.198;2023-03-14T10:10:48;101057.63;;;11.92;47.55
9249;BME280;4660;41.768;26.198;2023-03-14T10:15:58;101056.47;;;12.33;43.92
9249;BME280;4660;41.768;26.198;2023-03-14T10:18:25;101055.66;;;12.23;43.41
9249;BME280;4660;41.768;26.198;2023-03-14T10:23:29;101049.78;;;12.47;42.33
9249;BME280;4660;41.768;26.198;2023-03-14T10:28:27;101004.31;;;12.52;38.37
9249;BME280;4660;41.768;26.198;2023-03-14T10:30:55;101018.16;;;12.77;38.80
9249;BME280;4660;41.768;26.198;2023-03-14T10:38:39;101025.53;;;13.12;34.20
9249;BME280;4660;41.768;26.198;2023-03-14T10:41:26;101018.03;;;13.33;34.16
9249;BME280;4660;41.768;26.198;2023-03-14T10:43:57;100985.31;;;13.36;34.22
9249;BME280;4660;41.768;26.198;2023-03-14T10:46:26;100992.78;;;13.42;33.72
9249;BME280;4660;41.768;26.198;2023-03-14T10:48:53;101001.38;;;13.56;34.19
9249;BME280;4660;41.768;26.198;2023-03-14T10:51:25;100980.59;;;13.38;31.75
9249;BME280;4660;41.768;26.198;2023-03-14T10:54:42;100983.75;;;13.34;33.55
9249;BME280;4660;41.768;26.198;2023-03-14T10:57:03;100979.28;;;13.25;34.52
9249;BME280;4660;41.768;26.198;2023-03-14T10:59:39;100978.50;;;13.50;34.39
9249;BME280;4660;41.768;26.198;2023-03-14T11:21:02;100910.75;;;13.69;36.29
9249;BME280;4660;41.768;26.198;2023-03-14T11:31:38;100877.66;;;14.27;36.29
9249;BME280;4660;41.768;26.198;2023-03-14T11:34:36;100878.91;;;14.41;37.17
9249;BME280;4660;41.768;26.198;2023-03-14T11:37:17;100867.03;;;14.34;38.21
9249;BME280;4660;41.768;26.198;2023-03-14T11:39:54;100863.66;;;14.32;37.43
9249;BME280;4660;41.768;26.198;2023-03-14T11:42:21;100844.03;;;14.30;36.74
9249;BME280;4660;41.768;26.198;2023-03-14T11:44:48;100843.91;;;14.40;36.16
9249;BME280;4660;41.768;26.198;2023-03-14T11:47:18;100838.09;;;14.61;35.01
9249;BME280;4660;41.768;26.198;2023-03-14T11:50:12;100833.72;;;14.76;34.90
9249;BME280;4660;41.768;26.198;2023-03-14T11:52:52;100820.38;;;14.82;34.86
9249;BME280;4660;41.768;26.198;2023-03-14T11:55:27;100808.34;;;14.85;35.46
9249;BME280;4660;41.768;26.198;2023-03-14T11:57:58;100800.56;;;14.82;35.26
9249;BME280;4660;41.768;26.198;2023-03-14T12:00:25;100789.53;;;14.75;35.18
9249;BME280;4660;41.768;26.198;2023-03-14T12:05:54;100792.44;;;14.90;37.33
9249;BME280;4660;41.768;26.198;2023-03-14T12:11:21;100759.09;;;14.98;36.50
9249;BME280;4660;41.768;26.198;2023-03-14T12:13:50;100774.50;;;15.38;35.46
9249;BME280;4660;41.768;26.198;2023-03-14T12:18:48;100748.75;;;15.18;33.83
9249;BME280;4660;41.768;26.198;2023-03-14T12:21:14;100748.44;;;15.29;34.57
9249;BME280;4660;41.768;26.198;2023-03-14T12:26:17;100742.66;;;15.32;35.82
9249;BME280;4660;41.768;26.198;2023-03-14T12:28:49;100730.97;;;15.31;35.52
9249;BME280;4660;41.768;26.198;2023-03-14T12:42:15;100728.69;;;15.76;30.83
9249;BME280;4660;41.768;26.198;2023-03-14T12:44:52;100692.69;;;15.26;30.64
9249;BME280;4660;41.768;26.198;2023-03-14T13:00:59;100719.16;;;15.88;27.37
9249;BME280;4660;41.768;26.198;2023-03-14T13:06:02;100615.78;;;15.19;28.15
9249;BME280;4660;41.768;26.198;2023-03-14T13:11:20;100673.19;;;15.39;29.80
9249;BME280;4660;41.768;26.198;2023-03-14T13:24:34;100678.59;;;15.94;31.57
9249;BME280;4660;41.768;26.198;2023-03-14T13:27:00;100560.00;;;15.33;31.36
9249;BME280;4660;41.768;26.198;2023-03-14T13:29:28;100591.25;;;15.60;31.39
9249;BME280;4660;41.768;26.198;2023-03-14T13:31:59;100594.28;;;15.73;31.45
9249;BME280;4660;41.768;26.198;2023-03-14T13:34:29;100578.34;;;15.93;30.97
9249;BME280;4660;41.768;26.198;2023-03-14T13:36:55;100583.06;;;15.99;30.54
9249;BME280;4660;41.768;26.198;2023-03-14T13:53:18;100526.66;;;15.94;31.11
9249;BME280;4660;41.768;26.198;2023-03-14T13:55:44;100542.47;;;16.29;30.64
9249;BME280;4660;41.768;26.198;2023-03-14T13:58:30;100602.84;;;16.76;30.26
9249;BME280;4660;41.768;26.198;2023-03-14T14:01:00;100595.00;;;16.59;30.84
9249;BME280;4660;41.768;26.198;2023-03-14T14:03:28;100585.09;;;16.43;31.85
9249;BME280;4660;41.768;26.198;2023-03-14T14:05:56;100575.00;;;16.37;32.69
9249;BME280;4660;41.768;26.198;2023-03-14T14:13:35;100536.34;;;16.49;32.21
9249;BME280;4660;41.768;26.198;2023-03-14T14:21:13;100479.13;;;15.76;30.94
9249;BME280;4660;41.768;26.198;2023-03-14T14:26:22;100495.03;;;15.79;30.98
9249;BME280;4660;41.768;26.198;2023-03-14T14:29:02;100450.75;;;15.55;30.04
9249;BME280;4660;41.768;26.198;2023-03-14T14:36:41;100449.91;;;15.63;30.36
9249;BME280;4660;41.768;26.198;2023-03-14T14:39:25;100524.56;;;16.19;30.74
9249;BME280;4660;41.768;26.198;2023-03-14T14:41:52;100487.84;;;15.86;31.83
9249;BME280;4660;41.768;26.198;2023-03-14T14:44:22;100502.75;;;15.90;31.22
9249;BME280;4660;41.768;26.198;2023-03-14T14:46:50;100485.75;;;15.96;30.23
9249;BME280;4660;41.768;26.198;2023-03-14T14:49:20;100491.69;;;16.14;29.52
9249;BME280;4660;41.768;26.198;2023-03-14T14:54:46;100400.22;;;15.39;29.44
9249;BME280;4660;41.768;26.198;2023-03-14T14:57:40;100415.88;;;15.52;30.47
9249;BME280;4660;41.768;26.198;2023-03-14T15:00:10;100459.44;;;15.82;30.67
9249;BME280;4660;41.768;26.198;2023-03-14T15:02:50;100452.72;;;15.69;31.29
9249;BME280;4660;41.768;26.198;2023-03-14T15:05:46;100496.47;;;16.12;31.52
9249;BME280;4660;41.768;26.198;2023-03-14T15:09:01;100455.13;;;16.10;31.25
9249;BME280;4660;41.768;26.198;2023-03-14T15:11:27;100478.88;;;16.08;31.03
9249;BME280;4660;41.768;26.198;2023-03-14T15:13:53;100415.69;;;15.54;31.06
9249;BME280;4660;41.768;26.198;2023-03-14T15:16:28;100478.38;;;16.05;30.67
9249;BME280;4660;41.768;26.198;2023-03-14T15:18:57;100394.84;;;15.54;30.59
9249;BME280;4660;41.768;26.198;2023-03-14T15:24:01;100404.09;;;16.06;29.89
9249;BME280;4660;41.768;26.198;2023-03-14T15:26:33;100362.06;;;15.87;30.06
9249;BME280;4660;41.768;26.198;2023-03-14T15:29:00;100461.81;;;16.37;30.13
9249;BME280;4660;41.768;26.198;2023-03-14T15:34:26;100464.91;;;15.96;32.70
9249;BME280;4660;41.768;26.198;2023-03-14T15:36:53;100463.09;;;15.89;33.86
9249;BME280;4660;41.768;26.198;2023-03-14T15:39:19;100441.53;;;16.10;33.87
9249;BME280;4660;41.768;26.198;2023-03-14T15:41:56;100458.06;;;16.38;32.76
9249;BME280;4660;41.768;26.198;2023-03-14T15:44:22;100422.47;;;16.18;32.57
9249;BME280;4660;41.768;26.198;2023-03-14T15:46:48;100372.81;;;15.34;33.18
9249;BME280;4660;41.768;26.198;2023-03-14T15:49:14;100466.34;;;15.61;33.83
9249;BME280;4660;41.768;26.198;2023-03-14T15:51:41;100463.47;;;15.32;34.77
9249;BME280;4660;41.768;26.198;2023-03-14T15:54:09;100470.06;;;14.98;36.02
9249;BME280;4660;41.768;26.198;2023-03-14T15:56:36;100366.78;;;14.07;37.02
9249;BME280;4660;41.768;26.198;2023-03-14T15:59:02;100393.53;;;13.93;38.13
9249;BME280;4660;41.768;26.198;2023-03-14T16:01:28;100411.63;;;14.01;38.82
9249;BME280;4660;41.768;26.198;2023-03-14T16:03:57;100343.22;;;13.43;38.89
9249;BME280;4660;41.768;26.198;2023-03-14T16:06:34;100422.78;;;13.82;39.38
9249;BME280;4660;41.768;26.198;2023-03-14T16:09:01;100424.47;;;13.83;39.80
9249;BME280;4660;41.768;26.198;2023-03-14T16:11:27;100440.84;;;13.89;39.82
9249;BME280;4660;41.768;26.198;2023-03-14T16:13:52;100435.78;;;13.70;40.31
9249;BME280;4660;41.768;26.198;2023-03-14T16:16:18;100439.97;;;13.56;40.62
9249;BME280;4660;41.768;26.198;2023-03-14T16:18:44;100435.41;;;13.32;41.63
9249;BME280;4660;41.768;26.198;2023-03-14T16:21:17;100440.28;;;13.29;42.24